createdAt,value
2023-02-15T04:47:50.428Z,21.25
2023-02-15T04:50:53.534Z,29.10
2023-02-15T04:53:56.956Z,30.92
2023-02-15T04:56:59.753Z,35.42
2023-02-15T05:00:02.323Z,35.83
2023-02-15T05:03:07.416Z,29.12
2023-02-15T05:06:09.832Z,29.27
2023-02-15T05:09:13.195Z,34.30
2023-02-15T05:15:18.988Z,31.90
2023-02-15T05:18:22.683Z,32.03
2023-02-15T05:21:26.005Z,37.25
2023-02-15T05:24:47.342Z,31.52
2023-02-15T05:28:08.820Z,32.92
2023-02-15T05:31:13.238Z,34.65
2023-02-15T05:34:15.888Z,30.92
2023-02-15T05:37:18.313Z,34.47
2023-02-15T05:40:21.064Z,31.87
2023-02-15T05:43:23.882Z,31.90
2023-02-15T05:46:26.774Z,32.10
2023-02-15T05:49:29.826Z,27.80
2023-02-15T05:52:32.503Z,37.95
2023-02-15T05:55:35.214Z,36.22
2023-02-15T05:58:40.357Z,33.47
2023-02-15T06:01:42.778Z,32.58
2023-02-15T06:04:45.647Z,26.58
2023-02-15T06:07:48.207Z,32.33
2023-02-15T06:10:51.401Z,32.53
2023-02-15T06:13:53.822Z,30.08
2023-02-15T06:16:56.451Z,29.97
2023-02-15T06:19:58.964Z,27.05
2023-02-15T06:23:01.795Z,27.37
2023-02-15T06:26:04.640Z,30.60
2023-02-15T06:29:07.498Z,27.75
2023-02-15T06:32:10.544Z,21.10
2023-02-15T06:35:13.399Z,28.92
2023-02-15T06:38:16.399Z,31.42
2023-02-15T06:41:19.054Z,27.17
2023-02-15T06:44:22.032Z,35.85
2023-02-15T06:47:25.225Z,28.27
2023-02-15T06:50:27.812Z,33.72
2023-02-15T06:53:30.676Z,30.10
2023-02-15T06:56:33.179Z,24.75
2023-02-15T06:59:36.197Z,34.88
2023-02-15T07:02:38.671Z,24.27
2023-02-15T07:05:41.843Z,22.10
2023-02-15T07:08:44.707Z,28.80
2023-02-15T07:12:06.281Z,26.45
2023-02-15T07:15:14.297Z,25.73
2023-02-15T07:18:17.099Z,27.65
2023-02-15T07:21:19.785Z,29.87
2023-02-15T07:24:22.956Z,27.50
2023-02-15T07:27:25.609Z,30.92
2023-02-15T07:30:29.438Z,29.37
2023-02-15T07:33:33.256Z,25.62
2023-02-15T07:36:36.088Z,31.83
2023-02-15T07:39:38.775Z,35.50
2023-02-15T07:42:41.484Z,49.63
2023-02-15T07:45:44.487Z,30.75
2023-02-15T07:48:47.724Z,36.85
2023-02-15T07:51:50.167Z,32.17
2023-02-15T07:54:52.936Z,32.50
2023-02-15T07:57:55.435Z,35.63
2023-02-15T08:00:58.062Z,33.93
2023-02-15T08:04:01.034Z,29.12
2023-02-15T08:07:03.718Z,32.85
2023-02-15T08:10:07.241Z,31.73
2023-02-15T08:13:09.814Z,32.38
2023-02-15T08:16:14.266Z,28.95
2023-02-15T08:19:19.548Z,30.90
2023-02-15T08:22:22.280Z,34.38
2023-02-15T08:25:24.697Z,36.35
2023-02-15T08:28:27.381Z,33.00
2023-02-15T08:31:30.342Z,34.97
2023-02-15T08:34:36.865Z,33.85
2023-02-15T08:37:39.223Z,30.37
2023-02-15T08:40:41.912Z,36.37
2023-02-15T08:43:44.506Z,32.13
2023-02-15T08:46:49.276Z,30.80
2023-02-15T08:49:52.233Z,36.45
2023-02-15T08:52:54.841Z,37.78
2023-02-15T08:55:58.824Z,32.05
2023-02-15T08:59:02.379Z,38.25
2023-02-15T09:02:04.978Z,34.47
2023-02-15T09:05:08.172Z,31.45
2023-02-15T09:08:10.615Z,38.20
2023-02-15T09:11:23.180Z,46.73
2023-02-15T09:14:27.139Z,37.70
2023-02-15T09:17:29.964Z,35.17
2023-02-15T09:20:36.340Z,38.73
2023-02-15T09:23:39.355Z,33.83
2023-02-15T09:26:45.687Z,44.55
2023-02-15T09:29:49.689Z,36.58
2023-02-15T09:32:52.226Z,34.20
2023-02-15T09:35:55.038Z,40.97
2023-02-15T09:39:03.963Z,38.57
2023-02-15T09:42:21.949Z,42.22
2023-02-15T09:45:32.148Z,39.97
2023-02-15T09:48:41.496Z,41.33
2023-02-15T09:52:00.003Z,36.38
2023-02-15T09:55:41.978Z,42.53
2023-02-15T09:59:03.171Z,38.72
2023-02-15T10:02:36.909Z,46.35
2023-02-15T10:06:12.280Z,38.90
2023-02-15T10:09:36.271Z,36.42
2023-02-15T10:12:53.471Z,38.70
2023-02-15T10:16:26.748Z,40.75
2023-02-15T10:19:55.493Z,40.28
2023-02-15T10:23:29.814Z,40.97
2023-02-15T10:26:44.929Z,42.13
2023-02-15T10:30:08.057Z,46.10
2023-02-15T10:33:39.185Z,41.88
2023-02-15T10:36:57.140Z,37.50
2023-02-15T10:40:18.535Z,35.75
2023-02-15T10:43:47.055Z,32.00
2023-02-15T10:47:12.895Z,38.15
2023-02-15T10:50:52.903Z,42.00
2023-02-15T10:54:01.427Z,41.60
2023-02-15T10:57:08.276Z,40.72
2023-02-15T11:00:46.800Z,38.47
2023-02-15T11:04:07.248Z,35.35
2023-02-15T11:07:17.916Z,39.53
2023-02-15T11:10:27.596Z,40.05
2023-02-15T11:13:35.852Z,43.20
2023-02-15T11:16:45.221Z,43.65
2023-02-15T11:19:58.189Z,45.25
2023-02-15T11:23:03.018Z,43.13
2023-02-15T11:26:13.665Z,55.90
2023-02-15T11:29:38.345Z,42.00
2023-02-15T11:32:45.276Z,42.22
2023-02-15T11:36:20.519Z,43.58
2023-02-15T11:39:29.395Z,41.17
2023-02-15T11:42:33.644Z,34.40
2023-02-15T11:45:36.614Z,32.22
2023-02-15T11:48:40.044Z,42.30
2023-02-15T11:51:42.986Z,31.62
2023-02-15T11:54:51.024Z,39.57
2023-02-15T11:58:29.377Z,38.20
2023-02-15T12:01:39.267Z,33.95
2023-02-15T12:04:45.758Z,34.83
2023-02-15T12:07:54.856Z,37.22
2023-02-15T12:11:13.363Z,45.78
2023-02-15T12:14:18.572Z,37.97
2023-02-15T12:17:50.476Z,38.25
2023-02-15T12:20:53.096Z,37.13
2023-02-15T12:24:01.424Z,32.47
2023-02-15T12:27:15.135Z,34.65
2023-02-15T12:30:28.606Z,38.33
2023-02-15T12:33:36.383Z,36.83
2023-02-15T12:36:47.455Z,36.75
2023-02-15T12:39:59.820Z,36.67
2023-02-15T12:43:09.498Z,34.55
2023-02-15T12:46:22.713Z,38.50
2023-02-15T12:49:26.934Z,32.90
2023-02-15T12:52:29.322Z,32.25
2023-02-15T12:55:32.277Z,34.00
2023-02-15T12:58:37.066Z,31.62
2023-02-15T13:01:40.134Z,31.35
2023-02-15T13:04:50.462Z,32.15
2023-02-15T13:07:58.711Z,30.55
2023-02-15T13:11:06.103Z,30.60
2023-02-15T13:14:19.835Z,26.87
2023-02-15T13:17:32.745Z,27.23
2023-02-15T13:20:37.495Z,32.63
2023-02-15T13:23:46.759Z,31.33
2023-02-15T13:26:50.048Z,29.67
2023-02-15T13:29:59.316Z,26.77
2023-02-15T13:33:07.574Z,28.35
2023-02-15T13:36:22.153Z,30.77
2023-02-15T13:39:51.249Z,30.95
2023-02-15T13:43:32.826Z,30.45
2023-02-15T13:46:43.791Z,29.08
2023-02-15T13:50:02.395Z,29.73
2023-02-15T13:53:07.763Z,31.42
2023-02-15T13:56:45.298Z,28.12
2023-02-15T13:59:57.343Z,25.20
2023-02-15T14:03:27.715Z,25.58
2023-02-15T14:07:04.069Z,25.95
2023-02-15T14:10:21.503Z,26.55
2023-02-15T14:13:39.370Z,24.75
2023-02-15T14:17:18.743Z,28.00
2023-02-15T14:21:08.091Z,24.48
2023-02-15T14:24:36.565Z,29.23
2023-02-15T14:27:45.559Z,29.75
2023-02-15T14:30:51.485Z,30.15
2023-02-15T14:33:57.166Z,25.90
2023-02-15T14:37:00.265Z,29.95
2023-02-15T14:41:03.757Z,27.75
2023-02-15T14:44:23.092Z,30.33
2023-02-15T14:47:33.973Z,33.60
2023-02-15T14:50:38.233Z,30.35
2023-02-15T14:53:43.021Z,31.33
2023-02-15T14:56:46.849Z,35.47
2023-02-15T14:59:58.531Z,29.75
2023-02-15T15:03:01.519Z,33.03
2023-02-15T15:06:06.247Z,26.02
2023-02-15T15:09:21.619Z,32.97
2023-02-15T15:12:24.876Z,32.28
2023-02-15T15:15:32.912Z,32.45
2023-02-15T15:18:48.144Z,35.08
2023-02-15T15:21:50.624Z,33.85
2023-02-15T15:24:55.096Z,40.70
2023-02-15T15:27:57.653Z,31.33
2023-02-15T15:31:23.861Z,35.08
2023-02-15T15:34:42.220Z,38.05
2023-02-15T15:37:58.015Z,34.33
2023-02-15T15:41:10.704Z,37.58
2023-02-15T15:44:22.365Z,42.47
2023-02-15T15:48:06.369Z,31.52
2023-02-15T15:51:21.501Z,33.15
2023-02-15T15:54:26.966Z,34.92
2023-02-15T15:57:35.853Z,34.30
2023-02-15T16:00:47.294Z,37.33
2023-02-15T16:03:55.544Z,25.12
2023-02-15T16:06:59.290Z,29.25
2023-02-15T16:10:20.225Z,32.65
2023-02-15T16:13:22.713Z,32.03
2023-02-15T16:16:30.385Z,39.17
2023-02-15T16:19:40.156Z,35.47
2023-02-15T16:22:43.217Z,30.10
2023-02-15T16:26:14.878Z,37.40
2023-02-15T16:29:27.030Z,32.40
2023-02-15T16:32:29.487Z,36.80
2023-02-15T16:35:32.684Z,30.33
2023-02-15T16:38:44.035Z,37.92
2023-02-15T16:41:49.346Z,38.25
2023-02-15T16:44:58.156Z,36.92
2023-02-15T16:48:05.993Z,36.38
